Estación de Pirque
Ultimos registro cada 15 minutos 93
| N° | Estación | Fecha / Hora | Temperatura | Humedad | Lluvia | Velocidad | Dirección | Radiación | Presion |
| 93 | Pirque | 31-08-2026 23:00 | 7 | 93,9 | 0 | 0 | 253 | 0,6 | 945,9 |
| 92 | Pirque | 31-08-2026 22:45 | 6,8 | 93,4 | 0 | 0 | 253 | 0,6 | 945,6 |
| 91 | Pirque | 31-08-2026 22:30 | 6,8 | 92,1 | 0 | 0 | 253 | 0,6 | 945,6 |
| 90 | Pirque | 31-08-2026 22:15 | 7,7 | 92,1 | 0 | 0 | 253 | 0,6 | 945,4 |
| 89 | Pirque | 31-08-2026 22:00 | 7,6 | 91,3 | 0 | 0 | 253 | 0,6 | 945,5 |
| 88 | Pirque | 31-08-2026 21:45 | 8,5 | 89,9 | 0 | 0 | 254 | 0,6 | 945,4 |
| 87 | Pirque | 31-08-2026 21:30 | 8,4 | 89,4 | 0 | 0 | 256 | 0,6 | 945,4 |
| 86 | Pirque | 31-08-2026 21:15 | 8,2 | 89,3 | 0 | 0 | 253 | 0,6 | 945,1 |
| 85 | Pirque | 31-08-2026 21:00 | 8,7 | 88,4 | 0 | 0 | 251 | 0,6 | 945,2 |
| 84 | Pirque | 31-08-2026 20:45 | 9,4 | 86,8 | 0 | 0 | 251 | 0,6 | 945,4 |
| 83 | Pirque | 31-08-2026 20:30 | 9,2 | 86,5 | 0 | 0 | 251 | 0,6 | 945,4 |
| 82 | Pirque | 31-08-2026 20:15 | 10,1 | 84,3 | 0 | 0 | 251 | 0,6 | 945,5 |
| 81 | Pirque | 31-08-2026 20:00 | 9,8 | 84,8 | 0 | 0 | 251 | 0,6 | 945,3 |
| 80 | Pirque | 31-08-2026 19:45 | 10,6 | 81,8 | 0 | 0 | 251 | 0,6 | 945,4 |
| 79 | Pirque | 31-08-2026 19:30 | 10,9 | 82 | 0 | 0 | 253 | 0,6 | 945,2 |
| 78 | Pirque | 31-08-2026 19:15 | 11,3 | 80,2 | 0 | 0 | 253 | 0,6 | 945,2 |
| 77 | Pirque | 31-08-2026 19:00 | 11,6 | 77,8 | 0 | 0 | 253 | 0,6 | 945,3 |
| 76 | Pirque | 31-08-2026 18:45 | 12,5 | 73,8 | 0 | 0 | 253 | 0,6 | 945,4 |
| 75 | Pirque | 31-08-2026 18:30 | 13,5 | 67 | 0 | 0 | 253 | 1,9 | 945,3 |
| 74 | Pirque | 31-08-2026 18:15 | 16,3 | 59,8 | 0 | 0 | 253 | 9,4 | 945,4 |
| 73 | Pirque | 31-08-2026 18:00 | 17,1 | 55 | 0 | 0 | 251 | 64,4 | 945,1 |
| 72 | Pirque | 31-08-2026 17:45 | 18,4 | 52 | 0 | 0 | 253 | 120,6 | 945,2 |
| 71 | Pirque | 31-08-2026 17:30 | 18,4 | 52,2 | 0 | 0 | 253 | 166,9 | 945,2 |
| 70 | Pirque | 31-08-2026 17:15 | 18,7 | 50,9 | 0 | 0 | 260 | 218,1 | 945 |
| 69 | Pirque | 31-08-2026 17:00 | 19,2 | 49,3 | 0 | 0 | 265 | 269,4 | 945,1 |
| 68 | Pirque | 31-08-2026 16:45 | 19 | 49,1 | 0 | 0 | 263 | 325,6 | 944,9 |
| 67 | Pirque | 31-08-2026 16:30 | 19,3 | 48,7 | 0 | 0 | 260 | 398,1 | 944,8 |
| 66 | Pirque | 31-08-2026 16:15 | 19,4 | 50,2 | 0 | 0 | 258 | 420,6 | 944,8 |
| 65 | Pirque | 31-08-2026 16:00 | 19,2 | 48,2 | 0 | 0 | 264 | 458,1 | 944,7 |
| 64 | Pirque | 31-08-2026 15:45 | 19,5 | 49,8 | 0 | 0 | 289 | 500,6 | 944,7 |
| 63 | Pirque | 31-08-2026 15:30 | 19,7 | 51 | 0 | 0 | 305 | 538,1 | 945 |
| 62 | Pirque | 31-08-2026 15:15 | 19,6 | 51,5 | 0 | 0 | 310 | 583,1 | 945,3 |
| 61 | Pirque | 31-08-2026 15:00 | 19,4 | 49 | 0 | 0 | 310 | 614,4 | 945,4 |
| 60 | Pirque | 31-08-2026 14:45 | 19 | 51 | 0 | 0 | 314 | 640,6 | 945,4 |
| 59 | Pirque | 31-08-2026 14:30 | 18 | 51,2 | 0 | 0 | 314 | 664,4 | 945,5 |
| 58 | Pirque | 31-08-2026 14:15 | 18 | 53,7 | 0 | 0 | 316 | 696,9 | 945,7 |
| 57 | Pirque | 31-08-2026 14:00 | 17,3 | 53,9 | 0 | 0 | 281 | 686,9 | 945,9 |
| 56 | Pirque | 31-08-2026 13:45 | 17,4 | 51,8 | 0 | 0 | 292 | 618,1 | 945,9 |
| 55 | Pirque | 31-08-2026 13:30 | 18,1 | 53,9 | 0 | 0 | 291 | 435,6 | 945,9 |
| 54 | Pirque | 31-08-2026 13:15 | 17,5 | 57,8 | 0 | 0 | 268 | 933,1 | 946,1 |
| 53 | Pirque | 31-08-2026 13:00 | 17,3 | 52,6 | 0 | 0 | 260 | 813,1 | 946,2 |
| 52 | Pirque | 31-08-2026 12:45 | 16,7 | 55 | 0 | 0 | 236 | 765,6 | 946,4 |
| 51 | Pirque | 31-08-2026 12:30 | 16,7 | 56,4 | 0 | 0 | 229 | 756,9 | 946,6 |
| 50 | Pirque | 31-08-2026 12:15 | 16,6 | 57,3 | 0 | 0 | 181 | 748,1 | 946,9 |
| 49 | Pirque | 31-08-2026 12:00 | 16 | 59,2 | 0 | 0 | 181 | 746,9 | 947,2 |
| 48 | Pirque | 31-08-2026 11:45 | 15,9 | 63,9 | 0 | 0 | 204 | 424,4 | 947 |
| 47 | Pirque | 31-08-2026 11:30 | 13,9 | 68,1 | 0 | 0 | 194 | 519,4 | 947,4 |
| 46 | Pirque | 31-08-2026 11:15 | 14,2 | 72,8 | 0 | 0 | 190 | 350,6 | 947,5 |
| 45 | Pirque | 31-08-2026 11:00 | 13,4 | 73,3 | 0 | 0 | 181 | 276,9 | 947,7 |
| 44 | Pirque | 31-08-2026 10:45 | 12,8 | 77,1 | 0 | 0 | 185 | 303,1 | 947,5 |
| 43 | Pirque | 31-08-2026 10:30 | 12,1 | 80,6 | 0 | 0 | 181 | 298,1 | 947,4 |
| 42 | Pirque | 31-08-2026 10:15 | 11,5 | 81,6 | 0 | 0 | 184 | 234,4 | 947,4 |
| 41 | Pirque | 31-08-2026 10:00 | 11,2 | 84 | 0 | 0 | 185 | 175,6 | 947,6 |
| 40 | Pirque | 31-08-2026 09:45 | 10,9 | 87,9 | 0 | 0 | 184 | 225,6 | 947,4 |
| 39 | Pirque | 31-08-2026 09:30 | 10,4 | 92,3 | 0 | 0 | 183 | 194,4 | 947,4 |
| 38 | Pirque | 31-08-2026 09:15 | 9,4 | 93,7 | 0 | 0 | 183 | 100,6 | 947,5 |
| 37 | Pirque | 31-08-2026 09:00 | 9 | 94,2 | 0 | 0 | 183 | 70,6 | 947,1 |
| 36 | Pirque | 31-08-2026 08:45 | 9 | 94,3 | 0 | 0 | 183 | 59,4 | 947 |
| 35 | Pirque | 31-08-2026 08:30 | 8,7 | 94,3 | 0 | 0 | 183 | 66,9 | 946,7 |
| 34 | Pirque | 31-08-2026 08:15 | 8,5 | 94 | 0 | 0 | 183 | 73,1 | 946,4 |
| 33 | Pirque | 31-08-2026 08:00 | 8,2 | 92,8 | 0 | 0 | 183 | 41,9 | 946,4 |
| 32 | Pirque | 31-08-2026 07:45 | 8,1 | 93,4 | 0 | 0 | 183 | 20,6 | 946,3 |
| 31 | Pirque | 31-08-2026 07:30 | 7,4 | 95,8 | 0 | 0 | 184 | 10,6 | 946 |
| 30 | Pirque | 31-08-2026 07:15 | 7,2 | 95,4 | 0 | 0 | 183 | 3,1 | 945,8 |
| 29 | Pirque | 31-08-2026 07:00 | 7,2 | 95,2 | 0 | 0 | 183 | 0,6 | 945,3 |
| 28 | Pirque | 31-08-2026 06:45 | 7,4 | 95,3 | 0 | 0 | 183 | 0,6 | 945,2 |
| 27 | Pirque | 31-08-2026 06:30 | 7,4 | 96,4 | 0 | 0 | 183 | 0,6 | 945,1 |
| 26 | Pirque | 31-08-2026 06:15 | 7,3 | 96,7 | 0 | 0 | 183 | 0,6 | 945,1 |
| 25 | Pirque | 31-08-2026 06:00 | 7,4 | 96,7 | 0,2 | 0 | 183 | 0,6 | 945,1 |
| 24 | Pirque | 31-08-2026 05:45 | 7,4 | 96,7 | 0 | 0 | 183 | 0,6 | 945,3 |
| 23 | Pirque | 31-08-2026 05:30 | 7,6 | 96,9 | 0 | 0 | 183 | 0,6 | 945,2 |
| 22 | Pirque | 31-08-2026 05:15 | 7,7 | 96,8 | 0 | 0 | 183 | 0,6 | 945,2 |
| 21 | Pirque | 31-08-2026 05:00 | 7,9 | 96,8 | 0 | 0 | 183 | 0,6 | 945 |
| 20 | Pirque | 31-08-2026 04:45 | 7,8 | 96,8 | 0,2 | 0 | 183 | 0,6 | 945,2 |
| 19 | Pirque | 31-08-2026 04:30 | 7,8 | 96,6 | 0,2 | 0 | 183 | 0,6 | 945 |
| 18 | Pirque | 31-08-2026 04:15 | 7,9 | 96,5 | 0,2 | 0 | 183 | 0,6 | 945 |
| 17 | Pirque | 31-08-2026 04:00 | 8 | 96,6 | 0,2 | 0 | 183 | 0,6 | 944,9 |
| 16 | Pirque | 31-08-2026 03:45 | 8,1 | 96,6 | 0,4 | 0 | 183 | 0,6 | 945 |
| 15 | Pirque | 31-08-2026 03:30 | 8,1 | 96,6 | 0,2 | 0 | 188 | 0,6 | 944,9 |
| 14 | Pirque | 31-08-2026 03:15 | 8 | 96,4 | 0,2 | 0 | 188 | 0,6 | 944,7 |
| 13 | Pirque | 31-08-2026 03:00 | 8 | 96,3 | 0,6 | 0 | 188 | 0,6 | 944,8 |
| 12 | Pirque | 31-08-2026 02:45 | 8,1 | 96,1 | 0,6 | 0 | 188 | 0,6 | 944,5 |
| 11 | Pirque | 31-08-2026 02:30 | 8,1 | 96,1 | 0,2 | 0 | 188 | 0,6 | 944,6 |
| 10 | Pirque | 31-08-2026 02:15 | 8,2 | 95,9 | 0,4 | 0 | 188 | 0,6 | 944,3 |
| 9 | Pirque | 31-08-2026 02:00 | 8,1 | 95,7 | 0,4 | 0 | 188 | 0,6 | 944,1 |
| 8 | Pirque | 31-08-2026 01:45 | 8,2 | 95,4 | 0 | 0 | 188 | 0,6 | 944,1 |
| 7 | Pirque | 31-08-2026 01:30 | 8,1 | 94,9 | 0,2 | 0 | 188 | 0,6 | 943,9 |
| 6 | Pirque | 31-08-2026 01:15 | 8,1 | 94,4 | 0 | 0 | 188 | 0,6 | 944,1 |
| 5 | Pirque | 31-08-2026 01:00 | 8,3 | 94 | 0 | 0 | 188 | 0,6 | 943,7 |
| 4 | Pirque | 31-08-2026 00:45 | 8,5 | 93,9 | 0,2 | 0 | 183 | 0,6 | 943,6 |
| 3 | Pirque | 31-08-2026 00:30 | 8,5 | 93,6 | 0 | 0 | 183 | 0,6 | 943,5 |
| 2 | Pirque | 31-08-2026 00:15 | 8,4 | 93 | 0 | 0 | 202 | 0,6 | 943,6 |
| 1 | Pirque | 31-08-2026 00:00 | 8,1 | 94,4 | 0,6 | 0 | 237 | 0,6 | 943,4 |